createdAt,value
2018-12-06T00:02:01.688Z,27.53
2018-12-06T00:04:29.748Z,27.70
2018-12-06T00:06:57.819Z,26.10
2018-12-06T00:09:25.872Z,26.63
2018-12-06T00:11:53.980Z,25.47
2018-12-06T00:14:22.022Z,37.20
2018-12-06T00:16:56.873Z,29.23
2018-12-06T00:19:24.946Z,28.47
2018-12-06T00:21:53.138Z,29.77
2018-12-06T00:24:21.274Z,27.03
2018-12-06T00:26:49.358Z,33.27
2018-12-06T00:29:17.441Z,26.27
2018-12-06T00:31:45.529Z,26.77
2018-12-06T00:34:13.569Z,26.50
2018-12-06T00:36:41.644Z,23.60
2018-12-06T00:39:09.677Z,26.03
2018-12-06T00:41:37.815Z,26.53
2018-12-06T00:44:05.929Z,24.47
2018-12-06T00:46:34.037Z,23.87
2018-12-06T00:49:02.191Z,26.20
2018-12-06T00:51:30.288Z,21.73
2018-12-06T00:53:58.873Z,27.73
2018-12-06T00:56:27.028Z,24.67
2018-12-06T00:58:55.268Z,23.07
2018-12-06T01:01:23.371Z,25.10
2018-12-06T01:03:51.447Z,21.97
2018-12-06T01:06:19.530Z,27.07
2018-12-06T01:08:47.667Z,23.83
2018-12-06T01:11:15.751Z,23.37
2018-12-06T01:13:43.845Z,19.57
2018-12-06T01:16:11.907Z,24.23
2018-12-06T01:18:39.985Z,21.87
2018-12-06T01:21:08.225Z,22.40
2018-12-06T01:23:36.277Z,25.13
2018-12-06T01:26:04.389Z,21.70
2018-12-06T01:28:32.474Z,22.90
2018-12-06T01:31:00.641Z,23.63
2018-12-06T01:33:28.709Z,24.90
2018-12-06T01:35:56.760Z,20.13
2018-12-06T01:38:24.852Z,19.63
2018-12-06T01:40:53.394Z,21.43
2018-12-06T01:43:21.442Z,21.90
2018-12-06T01:45:50.026Z,19.77
2018-12-06T01:48:18.376Z,24.40
2018-12-06T01:50:46.524Z,25.07
2018-12-06T01:53:14.608Z,29.87
2018-12-06T01:55:42.653Z,29.60
2018-12-06T01:58:10.730Z,29.80
2018-12-06T02:00:38.789Z,26.90
2018-12-06T02:03:06.868Z,34.37
2018-12-06T02:05:34.958Z,33.67
2018-12-06T02:08:03.006Z,32.77
2018-12-06T02:10:31.103Z,37.43
2018-12-06T02:12:59.244Z,37.80
2018-12-06T02:15:27.321Z,31.70
2018-12-06T02:17:55.382Z,35.47
2018-12-06T02:20:23.473Z,30.73
2018-12-06T02:22:51.614Z,29.83
2018-12-06T02:25:19.722Z,29.97
2018-12-06T02:27:48.340Z,27.20
2018-12-06T02:30:16.443Z,23.93
2018-12-06T02:32:44.546Z,22.47
2018-12-06T02:35:12.561Z,25.07
2018-12-06T02:37:40.631Z,23.23
2018-12-06T02:40:08.682Z,25.93
2018-12-06T02:42:36.763Z,22.27
2018-12-06T02:45:04.849Z,24.23
2018-12-06T02:47:32.910Z,21.27
2018-12-06T02:50:00.957Z,23.73
2018-12-06T02:52:29.026Z,19.07
2018-12-06T02:54:57.076Z,18.97
2018-12-06T02:57:25.113Z,19.00
2018-12-06T02:59:53.186Z,19.27
2018-12-06T03:02:21.225Z,20.17
2018-12-06T03:04:49.302Z,20.87
2018-12-06T03:07:17.375Z,23.97
2018-12-06T03:09:46.396Z,18.73
2018-12-06T03:12:14.540Z,23.30
2018-12-06T03:14:42.608Z,18.70
2018-12-06T03:17:10.644Z,18.27
2018-12-06T03:19:38.704Z,16.63
2018-12-06T03:22:06.767Z,19.03
2018-12-06T03:24:34.798Z,19.13
2018-12-06T03:27:02.869Z,21.30
2018-12-06T03:29:30.944Z,21.30
2018-12-06T03:31:58.973Z,26.60
2018-12-06T03:34:27.133Z,27.60
2018-12-06T03:36:55.162Z,25.83
2018-12-06T03:39:23.229Z,28.83
2018-12-06T03:41:51.321Z,25.07
2018-12-06T03:44:19.346Z,30.30
2018-12-06T03:46:47.433Z,29.10
2018-12-06T03:49:15.575Z,27.53
2018-12-06T03:51:43.667Z,28.73
2018-12-06T03:54:11.758Z,27.53
2018-12-06T03:56:39.926Z,24.33
2018-12-06T03:59:08.114Z,27.43
2018-12-06T04:01:36.201Z,28.20
2018-12-06T04:04:04.273Z,28.23
2018-12-06T04:06:32.306Z,32.20
2018-12-06T04:09:00.399Z,26.00
2018-12-06T04:11:28.521Z,28.93
2018-12-06T04:13:56.661Z,27.60
2018-12-06T04:16:24.742Z,24.30
2018-12-06T04:18:52.792Z,27.63
2018-12-06T04:21:20.861Z,27.27
2018-12-06T04:23:52.021Z,29.43
2018-12-06T04:26:20.079Z,27.40
2018-12-06T04:28:48.156Z,24.73
2018-12-06T04:31:16.197Z,22.97
2018-12-06T04:33:44.289Z,22.73
2018-12-06T04:36:12.321Z,19.67
2018-12-06T04:38:40.463Z,17.30
2018-12-06T04:41:08.671Z,17.13
2018-12-06T04:43:36.744Z,17.87
2018-12-06T04:46:04.836Z,13.03
2018-12-06T04:48:32.856Z,9.70
2018-12-06T04:51:00.920Z,10.73
2018-12-06T04:53:28.954Z,10.87
2018-12-06T04:55:57.030Z,8.77
2018-12-06T04:58:25.069Z,10.77
2018-12-06T05:00:53.133Z,10.17
2018-12-06T05:03:21.196Z,11.40
2018-12-06T05:05:49.282Z,11.57
2018-12-06T05:08:17.354Z,12.10
2018-12-06T05:10:45.518Z,8.00
2018-12-06T05:13:14.209Z,7.17
2018-12-06T05:15:42.387Z,7.10
2018-12-06T05:18:11.063Z,8.30
2018-12-06T05:20:39.233Z,10.27
2018-12-06T05:23:07.272Z,5.90
2018-12-06T05:25:35.337Z,8.57
2018-12-06T05:28:03.894Z,9.90
2018-12-06T05:30:32.032Z,10.37
2018-12-06T05:33:00.116Z,13.10
2018-12-06T05:35:28.185Z,9.27
2018-12-06T05:37:56.252Z,12.10
2018-12-06T05:40:24.388Z,12.10
2018-12-06T05:42:52.497Z,12.90
2018-12-06T05:45:20.644Z,10.47
2018-12-06T05:47:48.711Z,9.77
2018-12-06T05:50:16.788Z,12.80
2018-12-06T05:52:44.834Z,7.93
2018-12-06T05:55:13.060Z,9.03
2018-12-06T05:57:41.170Z,6.70
2018-12-06T06:00:09.279Z,8.00
2018-12-06T06:02:37.312Z,6.90
2018-12-06T06:05:05.897Z,8.33
2018-12-06T06:07:33.969Z,8.90
2018-12-06T06:10:02.471Z,9.43
2018-12-06T06:12:30.526Z,8.57
2018-12-06T06:14:58.629Z,10.40
2018-12-06T06:17:27.488Z,8.20
2018-12-06T06:19:55.709Z,11.07
2018-12-06T06:22:23.752Z,11.73
2018-12-06T06:24:51.821Z,10.33
2018-12-06T06:27:19.875Z,10.37
2018-12-06T06:29:48.054Z,11.13
2018-12-06T06:32:16.163Z,11.90
2018-12-06T06:34:44.221Z,10.67
2018-12-06T06:37:12.272Z,9.00
2018-12-06T06:39:40.319Z,12.43
2018-12-06T06:42:08.396Z,6.90
2018-12-06T06:44:36.619Z,9.50
2018-12-06T06:47:04.660Z,8.13
2018-12-06T06:49:32.691Z,9.07
2018-12-06T06:52:00.913Z,6.97
2018-12-06T06:54:29.048Z,9.13
2018-12-06T06:56:57.275Z,10.60
2018-12-06T06:59:26.207Z,9.30
2018-12-06T07:01:54.644Z,13.37
2018-12-06T07:04:22.689Z,11.27
2018-12-06T07:06:51.296Z,12.60
2018-12-06T07:09:19.908Z,15.53
2018-12-06T07:11:48.007Z,17.67
2018-12-06T07:14:16.699Z,10.10
2018-12-06T07:16:44.896Z,10.37
2018-12-06T07:19:12.946Z,12.47
2018-12-06T07:21:41.125Z,14.90
2018-12-06T07:24:09.161Z,15.90
2018-12-06T07:26:37.984Z,11.70
2018-12-06T07:29:06.154Z,10.63
2018-12-06T07:31:35.001Z,14.47
2018-12-06T07:34:03.065Z,17.20
2018-12-06T07:36:31.453Z,11.13
2018-12-06T07:38:59.491Z,10.43
2018-12-06T07:41:27.637Z,9.33
2018-12-06T07:43:55.675Z,12.30
2018-12-06T07:46:23.736Z,10.00
2018-12-06T07:48:51.841Z,12.47
2018-12-06T07:51:20.938Z,9.23
2018-12-06T07:53:49.005Z,9.47
2018-12-06T07:56:17.705Z,7.00
2018-12-06T07:58:45.762Z,5.90
2018-12-06T08:01:14.122Z,8.30
2018-12-06T08:03:42.322Z,6.10
2018-12-06T08:06:10.388Z,8.13
2018-12-06T08:08:38.626Z,8.87
2018-12-06T08:11:06.709Z,6.73
2018-12-06T08:13:36.979Z,8.20
2018-12-06T08:16:05.009Z,7.30
2018-12-06T08:18:33.082Z,7.13
2018-12-06T08:21:01.690Z,5.70
2018-12-06T08:23:29.868Z,6.47
2018-12-06T08:25:57.946Z,7.87
2018-12-06T08:28:25.993Z,6.90
2018-12-06T08:30:54.034Z,6.27
2018-12-06T08:33:22.101Z,5.53
2018-12-06T08:35:50.155Z,5.10
2018-12-06T08:38:18.249Z,6.70
2018-12-06T08:40:46.292Z,5.10
2018-12-06T08:43:14.384Z,4.13
2018-12-06T08:45:42.443Z,5.30
2018-12-06T08:48:10.513Z,5.70
2018-12-06T08:50:38.601Z,4.70
2018-12-06T08:53:08.497Z,4.30
2018-12-06T08:55:40.156Z,6.20
2018-12-06T08:58:08.369Z,6.83
2018-12-06T09:00:36.657Z,4.13
2018-12-06T09:03:08.644Z,4.73
2018-12-06T09:05:36.723Z,4.17
2018-12-06T09:08:05.130Z,5.20
2018-12-06T09:10:33.230Z,8.37
2018-12-06T09:13:01.310Z,4.50
2018-12-06T09:15:29.332Z,4.83
2018-12-06T09:17:57.416Z,5.70
2018-12-06T09:20:25.468Z,4.97
2018-12-06T09:22:54.091Z,4.57
2018-12-06T09:25:22.153Z,4.70
2018-12-06T09:27:50.220Z,4.00
2018-12-06T09:30:18.260Z,4.43
2018-12-06T09:32:46.847Z,3.80
2018-12-06T09:35:14.905Z,4.40
2018-12-06T09:37:43.442Z,6.50
2018-12-06T09:40:11.470Z,6.13
2018-12-06T09:42:45.037Z,8.00
2018-12-06T09:45:14.372Z,5.43
2018-12-06T09:47:46.736Z,4.47
2018-12-06T09:50:19.313Z,7.83
2018-12-06T09:52:47.398Z,6.57
2018-12-06T09:55:15.450Z,4.73
2018-12-06T09:57:43.531Z,4.97
2018-12-06T10:00:12.812Z,7.50
2018-12-06T10:02:40.898Z,5.80
2018-12-06T10:05:09.973Z,5.20
2018-12-06T10:07:38.041Z,6.37
2018-12-06T10:10:06.131Z,5.57
2018-12-06T10:12:34.185Z,5.77
2018-12-06T10:15:02.314Z,6.93
2018-12-06T10:17:30.705Z,6.37
2018-12-06T10:20:00.121Z,9.13
2018-12-06T10:22:28.269Z,5.97
2018-12-06T10:24:56.723Z,4.93
2018-12-06T10:27:24.770Z,5.30
2018-12-06T10:29:52.854Z,6.20
2018-12-06T10:32:20.895Z,5.90
2018-12-06T10:34:53.367Z,8.77
2018-12-06T10:37:19.109Z,5.93
2018-12-06T10:39:47.273Z,6.43
2018-12-06T10:42:15.364Z,4.57
2018-12-06T10:44:47.249Z,5.77
2018-12-06T10:47:15.334Z,6.87
2018-12-06T10:49:43.869Z,5.07
2018-12-06T10:52:11.927Z,5.70
2018-12-06T10:54:40.013Z,5.03
2018-12-06T10:57:08.068Z,5.37
2018-12-06T10:59:36.177Z,6.33
2018-12-06T11:02:09.448Z,6.80
2018-12-06T11:04:37.702Z,6.47
2018-12-06T11:07:06.450Z,7.97
2018-12-06T11:09:34.552Z,8.50
2018-12-06T11:12:02.698Z,8.23
2018-12-06T11:14:30.787Z,6.83
2018-12-06T11:16:58.868Z,6.37
2018-12-06T11:19:27.388Z,7.37
2018-12-06T11:21:55.519Z,5.60
2018-12-06T11:24:23.568Z,5.60
2018-12-06T11:26:51.641Z,6.70
2018-12-06T11:29:19.737Z,7.13
2018-12-06T11:31:47.808Z,6.07
2018-12-06T11:34:17.991Z,5.63
2018-12-06T11:36:46.092Z,7.00
2018-12-06T11:39:14.169Z,5.00
2018-12-06T11:41:43.272Z,9.93
2018-12-06T11:44:11.639Z,6.43
2018-12-06T11:46:39.715Z,7.90
2018-12-06T11:49:07.834Z,7.60
2018-12-06T11:51:35.893Z,6.10
2018-12-06T11:54:04.790Z,6.53
2018-12-06T11:56:32.853Z,7.17
2018-12-06T11:59:00.896Z,6.17
2018-12-06T12:01:28.972Z,5.80
2018-12-06T12:03:57.065Z,7.63
2018-12-06T12:06:25.240Z,5.90
2018-12-06T12:08:53.468Z,5.50
2018-12-06T12:11:21.530Z,4.60
2018-12-06T12:13:49.606Z,4.97
2018-12-06T12:16:17.726Z,4.67
2018-12-06T12:18:45.768Z,4.57
2018-12-06T12:21:13.839Z,4.33
2018-12-06T12:23:43.094Z,4.40
2018-12-06T12:26:11.135Z,4.83
2018-12-06T12:28:39.925Z,4.13
2018-12-06T12:31:08.091Z,4.93
2018-12-06T12:33:36.156Z,7.03
2018-12-06T12:36:04.226Z,6.87
2018-12-06T12:38:32.407Z,4.23
2018-12-06T12:41:01.257Z,4.20
2018-12-06T12:43:29.640Z,4.17
2018-12-06T12:45:57.688Z,3.13
2018-12-06T12:48:26.065Z,4.23
2018-12-06T12:50:54.143Z,4.10
2018-12-06T12:53:23.032Z,2.87
2018-12-06T12:55:51.218Z,2.97
2018-12-06T12:58:19.296Z,4.00
2018-12-06T13:00:48.203Z,2.22
2018-12-06T13:03:16.274Z,2.23
2018-12-06T13:05:44.358Z,1.62
2018-12-06T13:08:12.396Z,2.07
2018-12-06T13:10:40.468Z,3.77
2018-12-06T13:13:13.033Z,2.27
2018-12-06T13:15:41.133Z,2.80
2018-12-06T13:18:09.518Z,3.07
2018-12-06T13:20:37.691Z,3.20
2018-12-06T13:23:05.813Z,1.70
2018-12-06T13:25:33.897Z,2.10
2018-12-06T13:28:01.965Z,3.07
2018-12-06T13:30:30.014Z,2.27
2018-12-06T13:32:58.099Z,4.20
2018-12-06T13:35:26.210Z,2.30
2018-12-06T13:37:54.392Z,3.33
2018-12-06T13:40:22.445Z,3.43
2018-12-06T13:42:50.808Z,2.73
2018-12-06T13:45:19.003Z,3.07
2018-12-06T13:47:47.140Z,2.30
2018-12-06T13:50:15.199Z,3.10
2018-12-06T13:52:43.244Z,3.43
2018-12-06T13:55:11.324Z,2.57
2018-12-06T13:57:39.366Z,2.37
2018-12-06T14:00:07.434Z,2.67
2018-12-06T14:02:35.457Z,2.77
2018-12-06T14:05:03.550Z,4.03
2018-12-06T14:07:32.046Z,1.70
2018-12-06T14:10:00.165Z,2.97
2018-12-06T14:12:32.061Z,2.40
2018-12-06T14:15:00.107Z,1.87
2018-12-06T14:17:28.176Z,3.50
2018-12-06T14:19:56.225Z,2.90
2018-12-06T14:22:24.286Z,4.63
2018-12-06T14:24:52.338Z,3.07
2018-12-06T14:27:21.314Z,2.10
2018-12-06T14:29:49.359Z,3.30
2018-12-06T14:32:17.446Z,2.20
2018-12-06T14:34:45.988Z,3.43
2018-12-06T14:37:14.047Z,6.13
2018-12-06T14:39:42.146Z,1.80
2018-12-06T14:42:10.303Z,2.93
2018-12-06T14:44:38.365Z,3.37
2018-12-06T14:47:06.662Z,4.23
2018-12-06T14:49:34.871Z,3.97
2018-12-06T14:52:02.936Z,5.00
2018-12-06T14:54:32.991Z,2.90
2018-12-06T14:57:06.326Z,3.30
2018-12-06T14:59:34.930Z,4.27
2018-12-06T15:02:04.020Z,6.17
2018-12-06T15:04:33.816Z,2.90
2018-12-06T15:07:02.561Z,5.47
2018-12-06T15:09:30.596Z,4.20
2018-12-06T15:11:58.663Z,4.93
2018-12-06T15:14:26.943Z,3.40
2018-12-06T15:16:55.006Z,3.63
2018-12-06T15:19:23.040Z,4.23
2018-12-06T15:21:51.984Z,5.20
2018-12-06T15:24:21.068Z,2.50
2018-12-06T15:26:49.109Z,3.13
2018-12-06T15:29:17.182Z,4.47
2018-12-06T15:31:45.232Z,4.37
2018-12-06T15:34:13.302Z,6.83
2018-12-06T15:36:41.800Z,5.17
2018-12-06T15:39:09.979Z,5.67
2018-12-06T15:41:38.048Z,3.90
2018-12-06T15:44:06.082Z,6.97
2018-12-06T15:46:34.402Z,3.73
2018-12-06T15:49:02.484Z,5.53
2018-12-06T15:51:30.548Z,6.03
2018-12-06T15:53:58.621Z,3.47
2018-12-06T15:56:26.691Z,2.67
2018-12-06T15:58:54.733Z,3.07
2018-12-06T16:01:22.790Z,4.43
2018-12-06T16:03:51.965Z,4.43
2018-12-06T16:06:20.039Z,6.30
2018-12-06T16:08:48.076Z,3.70
2018-12-06T16:11:16.132Z,3.47
2018-12-06T16:13:44.185Z,3.47
2018-12-06T16:16:12.826Z,3.87
2018-12-06T16:18:40.897Z,3.73
2018-12-06T16:21:09.031Z,4.00
2018-12-06T16:23:37.088Z,4.90
2018-12-06T16:26:05.243Z,5.00
2018-12-06T16:28:33.327Z,4.63
2018-12-06T16:31:01.489Z,5.63
2018-12-06T16:33:29.615Z,2.90
2018-12-06T16:35:57.716Z,3.53
2018-12-06T16:38:25.787Z,6.07
2018-12-06T16:40:53.817Z,3.30
2018-12-06T16:43:21.949Z,4.23
2018-12-06T16:45:50.055Z,6.13
2018-12-06T16:48:18.101Z,4.30
2018-12-06T16:50:46.166Z,5.00
2018-12-06T16:53:14.371Z,4.17
2018-12-06T16:55:42.536Z,5.17
2018-12-06T16:58:10.610Z,3.90
2018-12-06T17:00:38.669Z,3.17
2018-12-06T17:03:11.224Z,2.57
2018-12-06T17:05:39.281Z,3.43
2018-12-06T17:08:07.369Z,3.07
2018-12-06T17:10:35.499Z,2.83
2018-12-06T17:13:03.604Z,3.93
2018-12-06T17:15:31.659Z,3.40
2018-12-06T17:17:59.705Z,4.80
2018-12-06T17:20:29.433Z,2.50
2018-12-06T17:22:57.502Z,4.87
2018-12-06T17:25:25.610Z,3.43
2018-12-06T17:27:53.670Z,3.53
2018-12-06T17:30:28.878Z,3.97
2018-12-06T17:32:56.942Z,3.93
2018-12-06T17:35:25.268Z,4.50
2018-12-06T17:37:53.403Z,3.00
2018-12-06T17:40:21.496Z,2.83
2018-12-06T17:42:53.128Z,3.83
2018-12-06T17:45:21.219Z,2.77
2018-12-06T17:47:49.276Z,4.30
2018-12-06T17:50:17.788Z,3.00
2018-12-06T17:52:45.895Z,4.10
2018-12-06T17:55:13.945Z,2.47
2018-12-06T17:57:42.036Z,3.40
2018-12-06T18:00:10.757Z,3.57
2018-12-06T18:02:38.832Z,2.87
2018-12-06T18:05:06.911Z,2.67
2018-12-06T18:07:34.950Z,2.40
2018-12-06T18:10:03.069Z,2.53
2018-12-06T18:12:31.202Z,2.20
2018-12-06T18:14:59.313Z,4.10
2018-12-06T18:17:27.344Z,2.70
2018-12-06T18:19:55.631Z,3.20
2018-12-06T18:22:23.766Z,3.70
2018-12-06T18:24:51.878Z,2.57
2018-12-06T18:27:21.200Z,4.23
2018-12-06T18:29:49.277Z,3.10
2018-12-06T18:32:17.313Z,3.63
2018-12-06T18:34:46.134Z,4.00
2018-12-06T18:37:14.237Z,5.30
2018-12-06T18:39:42.295Z,8.07
2018-12-06T18:42:10.373Z,9.77
2018-12-06T18:44:39.294Z,5.37
2018-12-06T18:47:07.469Z,5.30
2018-12-06T18:49:35.702Z,19.40
2018-12-06T18:52:03.799Z,12.67
2018-12-06T18:54:31.868Z,9.13
2018-12-06T18:57:00.618Z,4.37
2018-12-06T18:59:28.724Z,3.23
2018-12-06T19:01:56.826Z,3.03
2018-12-06T19:04:26.107Z,2.63
2018-12-06T19:06:54.315Z,7.07
2018-12-06T19:09:22.423Z,3.50
2018-12-06T19:11:50.545Z,3.43
2018-12-06T19:14:21.756Z,4.20
2018-12-06T19:16:48.643Z,4.03
2018-12-06T19:19:16.695Z,6.10
2018-12-06T19:21:44.790Z,8.97
2018-12-06T19:24:12.929Z,6.77
2018-12-06T19:26:41.269Z,31.93
2018-12-06T19:29:09.324Z,31.03
2018-12-06T19:31:37.374Z,19.53
2018-12-06T19:34:05.461Z,29.93
2018-12-06T19:36:33.538Z,62.20
2018-12-06T19:39:01.617Z,188.37
2018-12-06T19:41:29.688Z,205.73
2018-12-06T19:43:57.765Z,7.57
2018-12-06T19:46:25.838Z,3.70
2018-12-06T19:48:54.029Z,3.20
2018-12-06T19:51:22.370Z,3.73
2018-12-06T19:53:50.447Z,3.43
2018-12-06T19:56:18.495Z,4.97
2018-12-06T19:58:50.135Z,3.20
2018-12-06T20:01:18.195Z,3.03
2018-12-06T20:03:46.266Z,3.00
2018-12-06T20:06:14.331Z,3.03
2018-12-06T20:08:42.394Z,5.23
2018-12-06T20:11:10.594Z,2.60
2018-12-06T20:13:38.684Z,3.20
2018-12-06T20:16:06.735Z,2.83
2018-12-06T20:18:34.809Z,3.07
2018-12-06T20:21:02.872Z,2.57
2018-12-06T20:23:30.976Z,3.47
2018-12-06T20:26:00.780Z,4.33
2018-12-06T20:28:28.868Z,3.17
2018-12-06T20:30:56.948Z,2.63
2018-12-06T20:33:56.563Z,3.17
2018-12-06T20:36:24.658Z,2.90
2018-12-06T20:38:52.723Z,2.93
2018-12-06T20:41:20.872Z,2.50
2018-12-06T20:43:48.973Z,2.97
2018-12-06T20:46:17.086Z,3.53
2018-12-06T20:48:45.706Z,3.23
2018-12-06T20:51:13.808Z,2.30
2018-12-06T20:53:41.926Z,4.03
2018-12-06T20:56:10.037Z,2.40
2018-12-06T20:58:38.176Z,5.87
2018-12-06T21:01:06.276Z,2.10
2018-12-06T21:03:34.841Z,1.80
2018-12-06T21:06:02.930Z,2.30
2018-12-06T21:08:30.997Z,2.47
2018-12-06T21:10:59.144Z,2.37
2018-12-06T21:13:27.225Z,1.70
2018-12-06T21:15:55.306Z,2.37
2018-12-06T21:18:23.517Z,1.90
2018-12-06T21:20:51.653Z,1.83
2018-12-06T21:23:19.720Z,2.00
2018-12-06T21:25:47.826Z,2.87
2018-12-06T21:28:15.889Z,1.60
2018-12-06T21:30:44.003Z,2.60
2018-12-06T21:33:12.060Z,4.63
2018-12-06T21:35:40.128Z,4.17
2018-12-06T21:38:08.222Z,6.10
2018-12-06T21:40:36.294Z,4.33
2018-12-06T21:43:04.353Z,9.90
2018-12-06T21:45:33.568Z,9.00
2018-12-06T21:48:01.792Z,2.60
2018-12-06T21:50:29.830Z,19.30
2018-12-06T21:52:57.906Z,10.23
2018-12-06T21:55:25.944Z,10.10
2018-12-06T21:57:54.039Z,47.40
2018-12-06T22:00:22.142Z,119.43
2018-12-06T22:02:50.210Z,13.00
2018-12-06T22:05:18.263Z,37.27
2018-12-06T22:07:46.327Z,2.83
2018-12-06T22:10:14.410Z,2.70
2018-12-06T22:12:44.245Z,2.10
2018-12-06T22:15:12.553Z,1.40
2018-12-06T22:17:40.597Z,1.60
2018-12-06T22:20:08.685Z,1.97
2018-12-06T22:22:36.752Z,2.03
2018-12-06T22:25:04.851Z,1.50
2018-12-06T22:27:32.914Z,2.13
2018-12-06T22:30:00.958Z,1.87
2018-12-06T22:32:29.088Z,2.00
2018-12-06T22:34:57.174Z,3.23
2018-12-06T22:37:25.246Z,1.77
2018-12-06T22:39:53.442Z,1.30
2018-12-06T22:42:21.571Z,1.40
2018-12-06T22:44:49.658Z,1.50
2018-12-06T22:47:19.736Z,1.23
2018-12-06T22:49:47.828Z,2.70
2018-12-06T22:52:16.028Z,1.57
2018-12-06T22:54:44.230Z,1.33
2018-12-06T22:57:12.368Z,2.33
2018-12-06T22:59:40.406Z,1.63
2018-12-06T23:02:09.043Z,1.67
2018-12-06T23:04:37.584Z,2.07
2018-12-06T23:07:05.889Z,1.30
2018-12-06T23:09:34.130Z,1.57
2018-12-06T23:12:02.182Z,1.57
2018-12-06T23:14:30.372Z,1.13
2018-12-06T23:16:59.063Z,1.63
2018-12-06T23:19:27.152Z,1.80
2018-12-06T23:21:55.835Z,1.30
2018-12-06T23:24:23.897Z,2.33
2018-12-06T23:26:51.954Z,1.00
2018-12-06T23:29:19.997Z,1.40
2018-12-06T23:31:48.072Z,1.30
2018-12-06T23:34:16.105Z,3.23
2018-12-06T23:36:44.157Z,1.27
2018-12-06T23:39:12.204Z,1.33
2018-12-06T23:41:40.265Z,1.37
2018-12-06T23:44:08.315Z,1.00
2018-12-06T23:46:36.427Z,1.73
2018-12-06T23:49:04.468Z,1.50
2018-12-06T23:51:37.912Z,1.70
2018-12-06T23:54:05.955Z,1.30
2018-12-06T23:56:34.009Z,1.67
2018-12-06T23:59:02.077Z,1.50
